Time;durP1;ratioP1;P1;durP2;ratioP2;P2;SDS_P1;SDS_P2;PMS_P1;PMS_P2;Temp;Humidity;BMP_temperature;BMP_pressure;BME280_temperature;BME280_humidity;BME280_pressure;Samples;Min_cycle;Max_cycle;Signal;HPM_P1;HPM_P2
2023/06/14 00:00:58;;;;;;;4.55;0.70;;;22.50;41.20;;;;;;5067185;28;20032;-62
2023/06/14 00:03:24;;;;;;;2.40;0.90;;;22.40;41.10;;;;;;5064168;28;20040;-65
2023/06/14 00:05:50;;;;;;;1.58;0.80;;;22.40;41.60;;;;;;5065192;28;20426;-63
2023/06/14 00:08:16;;;;;;;1.10;0.73;;;22.30;41.60;;;;;;5060224;28;20044;-62
2023/06/14 00:10:42;;;;;;;10.35;0.75;;;22.30;41.70;;;;;;5040297;28;20047;-62
2023/06/14 00:13:09;;;;;;;2.13;0.73;;;22.20;41.50;;;;;;5065828;28;20416;-62
2023/06/14 00:15:35;;;;;;;1.30;0.73;;;22.20;41.70;;;;;;5067857;28;20082;-62
2023/06/14 00:18:01;;;;;;;1.00;0.90;;;22.20;41.80;;;;;;5067330;28;20147;-62
2023/06/14 00:20:27;;;;;;;0.95;0.88;;;22.20;41.70;;;;;;5063984;28;20020;-62
2023/06/14 00:22:55;;;;;;;2.20;0.75;;;22.20;41.60;;;;;;5063349;28;20036;-65
2023/06/14 00:25:27;;;;;;;1.73;0.80;;;22.10;42.10;;;;;;5048467;28;20040;-64
2023/06/14 00:27:53;;;;;;;0.45;0.45;;;22.10;42.30;;;;;;5041715;28;20033;-65
2023/06/14 00:30:19;;;;;;;0.52;0.40;;;22.00;42.30;;;;;;5064294;28;20100;-65
2023/06/14 00:32:45;;;;;;;0.73;0.70;;;22.00;42.40;;;;;;5066395;28;20139;-65
2023/06/14 00:35:11;;;;;;;2.20;0.75;;;22.00;42.40;;;;;;5065686;28;20043;-65
2023/06/14 00:37:37;;;;;;;0.80;0.80;;;22.00;42.50;;;;;;5067306;28;20033;-67
2023/06/14 00:40:04;;;;;;;1.73;0.50;;;21.90;42.30;;;;;;5050388;28;20174;-66
2023/06/14 00:42:30;;;;;;;0.70;0.50;;;21.90;42.30;;;;;;5067799;28;20041;-66
2023/06/14 00:44:57;;;;;;;0.85;0.70;;;21.90;42.10;;;;;;5049762;28;20031;-66
2023/06/14 00:47:23;;;;;;;0.65;0.65;;;21.90;42.40;;;;;;5066873;28;20021;-66
2023/06/14 00:49:53;;;;;;;0.55;0.40;;;21.90;42.50;;;;;;5068341;28;20033;-66
2023/06/14 00:52:20;;;;;;;1.92;0.80;;;21.80;43.00;;;;;;5065431;28;20020;-64
2023/06/14 00:54:46;;;;;;;4.25;0.68;;;21.80;43.40;;;;;;5064231;28;20058;-65
2023/06/14 00:57:13;;;;;;;2.05;0.50;;;21.70;43.10;;;;;;5050863;28;20025;-62
2023/06/14 00:59:43;;;;;;;0.90;0.90;;;21.70;42.90;;;;;;5065872;28;20048;-63
2023/06/14 01:02:09;;;;;;;0.52;0.52;;;21.70;43.30;;;;;;5065820;28;20021;-62
2023/06/14 01:04:35;;;;;;;1.10;0.80;;;21.70;43.30;;;;;;5063273;28;20029;-66
2023/06/14 01:07:22;;;;;;;1.00;0.85;;;21.60;43.10;;;;;;5068699;28;20017;-65
2023/06/14 01:10:02;;;;;;;0.70;0.50;;;21.70;42.90;;;;;;5062397;28;20104;-65
2023/06/14 01:12:37;;;;;;;0.60;0.60;;;21.60;42.80;;;;;;5045887;28;20025;-62
2023/06/14 01:15:03;;;;;;;1.00;0.80;;;21.60;43.00;;;;;;5058729;28;20029;-62
2023/06/14 01:17:31;;;;;;;2.28;0.70;;;21.60;43.00;;;;;;5034694;28;20025;-62
2023/06/14 01:20:09;;;;;;;1.38;1.10;;;21.60;43.00;;;;;;5056308;28;20036;-65
2023/06/14 01:22:35;;;;;;;1.90;0.90;;;21.60;43.10;;;;;;5055218;28;20428;-64
2023/06/14 01:25:01;;;;;;;1.33;0.90;;;21.60;43.00;;;;;;5061079;28;20437;-65
2023/06/14 01:27:32;;;;;;;1.92;1.27;;;21.50;43.00;;;;;;5056119;28;20020;-65
2023/06/14 01:30:00;;;;;;;3.63;0.70;;;21.50;43.00;;;;;;5059542;28;20033;-65
2023/06/14 01:32:28;;;;;;;1.23;0.70;;;21.50;43.10;;;;;;5066804;28;20020;-65
2023/06/14 01:34:53;;;;;;;0.82;0.77;;;21.50;43.20;;;;;;5058355;28;20029;-65
2023/06/14 01:37:21;;;;;;;0.70;0.63;;;21.50;43.50;;;;;;5065767;28;20032;-65
2023/06/14 01:39:51;;;;;;;0.50;0.50;;;21.40;43.30;;;;;;5062696;28;20622;-65
2023/06/14 01:42:17;;;;;;;1.15;0.70;;;21.40;43.70;;;;;;5061611;28;20530;-65
2023/06/14 01:44:45;;;;;;;0.50;0.50;;;21.40;44.00;;;;;;5058289;28;20114;-65
2023/06/14 01:47:11;;;;;;;0.73;0.50;;;21.30;43.80;;;;;;5058876;28;20024;-65
2023/06/14 01:49:38;;;;;;;9.35;0.60;;;21.30;44.20;;;;;;5041650;28;20486;-65
2023/06/14 01:52:04;;;;;;;1.33;0.85;;;21.30;44.00;;;;;;5060288;28;20017;-65
2023/06/14 01:54:30;;;;;;;1.75;0.75;;;21.30;44.00;;;;;;5044158;28;20427;-65
2023/06/14 01:56:57;;;;;;;2.78;0.47;;;21.30;44.30;;;;;;5061516;28;20472;-65
2023/06/14 01:59:23;;;;;;;1.17;0.68;;;21.20;44.20;;;;;;5066718;28;20417;-65
2023/06/14 02:01:48;;;;;;;0.88;0.70;;;21.20;44.20;;;;;;5066148;28;20028;-65
2023/06/14 02:04:14;;;;;;;1.38;0.73;;;21.20;44.40;;;;;;5065552;28;20047;-61
2023/06/14 02:06:40;;;;;;;1.33;0.63;;;21.10;44.40;;;;;;5044902;28;20468;-62
2023/06/14 02:09:05;;;;;;;1.08;0.80;;;21.10;44.60;;;;;;5046698;28;20043;-65
2023/06/14 02:11:31;;;;;;;1.25;1.05;;;21.10;45.00;;;;;;5066830;28;20041;-65
2023/06/14 02:13:59;;;;;;;0.82;0.70;;;21.00;45.00;;;;;;5060953;28;20028;-65
2023/06/14 02:16:27;;;;;;;2.55;0.70;;;21.00;44.80;;;;;;5068122;28;20037;-61
2023/06/14 02:18:53;;;;;;;1.33;0.88;;;21.00;44.80;;;;;;5067050;28;20384;-61
2023/06/14 02:21:19;;;;;;;3.25;1.23;;;21.00;44.90;;;;;;5047702;28;20025;-62
2023/06/14 02:23:44;;;;;;;0.57;0.50;;;21.00;44.70;;;;;;5063509;28;20033;-64
2023/06/14 02:26:10;;;;;;;0.60;0.50;;;20.90;44.60;;;;;;5068891;28;20032;-65
2023/06/14 02:28:38;;;;;;;0.65;0.60;;;21.00;44.80;;;;;;5026991;28;20497;-65
2023/06/14 02:31:04;;;;;;;1.15;0.80;;;21.00;44.90;;;;;;5029882;28;20132;-64
2023/06/14 02:33:29;;;;;;;3.83;1.00;;;20.90;44.60;;;;;;5067739;28;20135;-64
2023/06/14 02:35:56;;;;;;;0.98;0.50;;;20.90;44.60;;;;;;5060227;28;20459;-64
2023/06/14 02:38:21;;;;;;;1.20;1.10;;;20.90;44.70;;;;;;5046954;28;20075;-65
2023/06/14 02:40:47;;;;;;;0.95;0.50;;;20.90;44.80;;;;;;5059435;28;20065;-64
2023/06/14 02:43:13;;;;;;;0.93;0.88;;;20.80;44.90;;;;;;5066234;28;20082;-66
2023/06/14 02:45:38;;;;;;;0.70;0.55;;;20.80;45.20;;;;;;5067223;28;20013;-66
2023/06/14 02:48:04;;;;;;;2.55;0.70;;;20.80;45.10;;;;;;5047142;28;20128;-65
2023/06/14 02:50:30;;;;;;;1.98;1.00;;;20.80;45.00;;;;;;5063109;28;20160;-61
2023/06/14 02:52:56;;;;;;;0.98;0.82;;;20.80;44.90;;;;;;5064685;28;20107;-61
2023/06/14 02:55:22;;;;;;;1.10;0.98;;;20.80;44.80;;;;;;5046353;28;20479;-62
2023/06/14 02:57:48;;;;;;;0.80;0.65;;;20.80;44.90;;;;;;5064734;28;20029;-64
2023/06/14 03:00:14;;;;;;;1.33;0.75;;;20.70;44.80;;;;;;5058893;28;20043;-65
2023/06/14 03:02:42;;;;;;;0.60;0.50;;;20.70;45.10;;;;;;5057535;28;20052;-65
2023/06/14 03:05:09;;;;;;;0.68;0.60;;;20.70;45.30;;;;;;5064565;28;20050;-65
2023/06/14 03:07:35;;;;;;;0.95;0.57;;;20.60;45.30;;;;;;5061110;28;20044;-62
2023/06/14 03:10:01;;;;;;;5.47;1.08;;;20.60;45.40;;;;;;5061718;28;20032;-62
2023/06/14 03:12:26;;;;;;;0.75;0.57;;;20.60;46.10;;;;;;5061785;28;20044;-62
2023/06/14 03:14:53;;;;;;;0.82;0.57;;;20.50;46.40;;;;;;5067513;28;20035;-62
2023/06/14 03:17:19;;;;;;;1.08;0.80;;;20.50;46.20;;;;;;5061675;28;20037;-65
2023/06/14 03:19:45;;;;;;;0.98;0.75;;;20.50;46.20;;;;;;5065762;28;20032;-65
2023/06/14 03:22:11;;;;;;;1.33;0.60;;;20.50;46.10;;;;;;5066069;28;20025;-62
2023/06/14 03:24:37;;;;;;;2.92;0.70;;;20.40;46.20;;;;;;5068907;28;20028;-61
2023/06/14 03:27:04;;;;;;;0.82;0.45;;;20.40;46.30;;;;;;5050349;28;20084;-62
2023/06/14 03:29:30;;;;;;;1.02;0.82;;;20.30;46.10;;;;;;5048286;28;20028;-62
2023/06/14 03:32:03;;;;;;;0.85;0.85;;;20.30;46.20;;;;;;5058517;28;20039;-61
2023/06/14 03:34:28;;;;;;;3.28;0.70;;;20.30;46.20;;;;;;5036202;28;20029;-62
2023/06/14 03:36:54;;;;;;;1.67;0.88;;;20.30;46.20;;;;;;5058423;28;20031;-65
2023/06/14 03:39:20;;;;;;;0.82;0.60;;;20.30;46.30;;;;;;5067432;28;20473;-62
2023/06/14 03:41:46;;;;;;;2.38;0.75;;;20.30;46.80;;;;;;5067599;28;20078;-65
2023/06/14 03:44:14;;;;;;;1.02;0.75;;;20.30;46.70;;;;;;5067486;28;20036;-65
2023/06/14 03:46:39;;;;;;;0.98;0.70;;;20.30;46.70;;;;;;5048384;28;20028;-62
2023/06/14 03:49:05;;;;;;;1.35;0.77;;;20.20;46.50;;;;;;5062354;28;20036;-62
2023/06/14 03:51:31;;;;;;;0.65;0.50;;;20.30;46.60;;;;;;5047564;28;20035;-62
2023/06/14 03:53:56;;;;;;;0.50;0.50;;;20.20;46.50;;;;;;5068541;28;20033;-65
2023/06/14 03:56:22;;;;;;;2.58;0.68;;;20.20;46.50;;;;;;5049392;28;20435;-65
2023/06/14 03:58:49;;;;;;;2.30;0.80;;;20.20;46.60;;;;;;5054526;28;20094;-65
2023/06/14 04:01:14;;;;;;;1.25;0.60;;;20.20;46.50;;;;;;5063075;28;20033;-65
2023/06/14 04:03:40;;;;;;;4.47;0.90;;;20.30;46.60;;;;;;5064377;28;20125;-65
2023/06/14 04:06:07;;;;;;;1.15;0.90;;;20.30;46.60;;;;;;5062222;28;20021;-66
2023/06/14 04:08:33;;;;;;;0.75;0.50;;;20.30;46.60;;;;;;5067154;28;20056;-65
2023/06/14 04:10:58;;;;;;;1.40;0.77;;;20.20;46.50;;;;;;5064515;28;20067;-65
2023/06/14 04:13:24;;;;;;;1.25;0.60;;;20.20;46.50;;;;;;5063160;28;20057;-65
2023/06/14 04:15:50;;;;;;;1.15;0.60;;;20.30;46.60;;;;;;5056840;28;20024;-65
2023/06/14 04:18:15;;;;;;;0.93;0.65;;;20.20;46.60;;;;;;5061213;28;20036;-66
2023/06/14 04:20:41;;;;;;;1.35;0.60;;;20.30;46.60;;;;;;5042346;28;20033;-65
2023/06/14 04:23:21;;;;;;;5.15;1.38;;;20.30;46.70;;;;;;5063675;28;20025;-65
2023/06/14 04:25:47;;;;;;;0.47;0.43;;;20.30;46.60;;;;;;5065725;28;20059;-62
2023/06/14 04:28:15;;;;;;;1.27;0.70;;;20.30;46.90;;;;;;5063077;28;20440;-65
2023/06/14 04:30:41;;;;;;;1.38;1.15;;;20.30;46.80;;;;;;5039821;28;20033;-62
2023/06/14 04:33:07;;;;;;;1.58;0.63;;;20.30;46.90;;;;;;5065264;28;20035;-62
2023/06/14 04:35:35;;;;;;;1.33;0.50;;;20.40;47.00;;;;;;5056438;28;20383;-62
2023/06/14 04:38:04;;;;;;;2.28;0.75;;;20.40;47.00;;;;;;5062520;28;20035;-62
2023/06/14 04:40:30;;;;;;;1.60;0.35;;;20.40;46.90;;;;;;5067477;28;20064;-62
2023/06/14 04:42:57;;;;;;;3.55;0.82;;;20.40;47.10;;;;;;5064577;28;20052;-62
2023/06/14 04:45:23;;;;;;;0.50;0.50;;;20.40;46.80;;;;;;5045255;28;20052;-62
2023/06/14 04:47:51;;;;;;;0.38;0.38;;;20.40;46.80;;;;;;5062505;28;20074;-62
2023/06/14 04:50:17;;;;;;;0.80;0.63;;;20.40;46.90;;;;;;5043321;28;20098;-62
2023/06/14 04:52:43;;;;;;;0.73;0.50;;;20.50;47.00;;;;;;5064190;28;20107;-62
2023/06/14 04:55:09;;;;;;;1.70;0.80;;;20.50;47.10;;;;;;5061181;28;20495;-62
2023/06/14 04:57:35;;;;;;;0.73;0.60;;;20.50;47.00;;;;;;5044867;28;20043;-62
2023/06/14 05:00:04;;;;;;;0.80;0.50;;;20.50;47.00;;;;;;5062397;28;20124;-62
2023/06/14 05:02:30;;;;;;;1.75;0.70;;;20.50;47.00;;;;;;5064979;28;20139;-62
2023/06/14 05:04:57;;;;;;;1.73;0.68;;;20.60;47.00;;;;;;5044770;28;20517;-62
2023/06/14 05:07:23;;;;;;;0.60;0.52;;;20.60;46.90;;;;;;5062337;28;20029;-64
2023/06/14 05:09:49;;;;;;;2.22;0.98;;;20.70;46.90;;;;;;5042810;28;20513;-65
2023/06/14 05:12:18;;;;;;;0.50;0.50;;;20.70;46.90;;;;;;5067351;28;20180;-65
2023/06/14 05:14:44;;;;;;;0.45;0.45;;;20.70;46.80;;;;;;5040714;28;20033;-65
2023/06/14 05:17:10;;;;;;;2.95;0.80;;;20.70;46.80;;;;;;5067263;28;20024;-62
2023/06/14 05:19:36;;;;;;;1.08;0.57;;;20.80;46.80;;;;;;5067483;28;20032;-62
2023/06/14 05:22:03;;;;;;;1.33;0.70;;;20.90;46.80;;;;;;5064597;28;20118;-62
2023/06/14 05:24:30;;;;;;;0.70;0.70;;;20.90;47.40;;;;;;5066454;28;20032;-63
2023/06/14 05:26:56;;;;;;;0.82;0.82;;;20.90;46.80;;;;;;5062830;28;20032;-62
2023/06/14 05:29:22;;;;;;;0.93;0.70;;;20.90;46.80;;;;;;5050358;28;20484;-62
2023/06/14 05:31:47;;;;;;;1.50;0.80;;;21.00;46.80;;;;;;5068178;28;20033;-62
2023/06/14 05:34:13;;;;;;;1.13;0.77;;;21.00;46.80;;;;;;5069270;28;20035;-62
2023/06/14 05:36:39;;;;;;;0.98;0.88;;;21.10;47.00;;;;;;5067118;28;20029;-65
2023/06/14 05:39:05;;;;;;;0.50;0.50;;;21.10;47.60;;;;;;5069113;28;20062;-62
2023/06/14 05:41:31;;;;;;;3.17;0.93;;;21.10;46.90;;;;;;5067942;28;20032;-62
2023/06/14 05:43:57;;;;;;;1.58;0.68;;;21.10;47.00;;;;;;5047742;28;20395;-62
2023/06/14 05:46:25;;;;;;;5.93;1.02;;;21.20;46.90;;;;;;5063652;28;20105;-62
2023/06/14 05:48:54;;;;;;;1.63;0.57;;;21.30;46.80;;;;;;5070488;28;20025;-62
2023/06/14 05:51:21;;;;;;;0.82;0.70;;;21.30;46.70;;;;;;5050243;28;20407;-62
2023/06/14 05:53:48;;;;;;;2.92;0.80;;;21.40;46.80;;;;;;5070967;28;20150;-62
2023/06/14 05:56:18;;;;;;;1.10;0.80;;;21.40;46.70;;;;;;5070163;28;20032;-62
2023/06/14 05:58:44;;;;;;;0.98;0.70;;;21.40;46.50;;;;;;5063180;28;20387;-62
2023/06/14 06:01:10;;;;;;;0.50;0.50;;;21.50;46.50;;;;;;5069307;28;20540;-62
2023/06/14 06:03:36;;;;;;;0.82;0.60;;;21.60;46.60;;;;;;5068027;28;20040;-62
2023/06/14 06:06:02;;;;;;;1.38;0.60;;;21.60;46.40;;;;;;5051257;28;20027;-62
2023/06/14 06:08:28;;;;;;;0.77;0.70;;;21.70;46.40;;;;;;5067238;28;20458;-62
2023/06/14 06:10:54;;;;;;;0.65;0.52;;;21.70;46.30;;;;;;5045817;28;20103;-62
2023/06/14 06:13:20;;;;;;;1.00;0.60;;;21.80;46.20;;;;;;5062412;28;20036;-65
2023/06/14 06:15:46;;;;;;;0.50;0.50;;;21.90;46.10;;;;;;5058690;28;20040;-65
2023/06/14 06:18:11;;;;;;;0.55;0.55;;;21.90;46.00;;;;;;5071157;28;20044;-62
2023/06/14 06:20:37;;;;;;;0.95;0.80;;;22.00;45.90;;;;;;5066388;28;20464;-62
2023/06/14 06:23:03;;;;;;;3.00;0.70;;;22.00;45.80;;;;;;5066238;28;20028;-62
2023/06/14 06:25:31;;;;;;;11.02;0.88;;;22.10;45.70;;;;;;5044863;28;20021;-62
2023/06/14 06:27:57;;;;;;;0.65;0.63;;;22.10;45.70;;;;;;5064102;28;20357;-65
2023/06/14 06:30:24;;;;;;;0.60;0.60;;;22.20;45.60;;;;;;5059786;28;20484;-65
2023/06/14 06:32:50;;;;;;;1.00;0.82;;;22.20;45.50;;;;;;5061837;28;20025;-62
2023/06/14 06:35:16;;;;;;;1.42;1.17;;;22.30;45.50;;;;;;5067697;28;20503;-62
2023/06/14 06:37:42;;;;;;;1.02;0.70;;;22.30;45.40;;;;;;5063820;28;20028;-62
2023/06/14 06:40:08;;;;;;;0.75;0.65;;;22.40;45.50;;;;;;5061210;28;20115;-62
2023/06/14 06:42:35;;;;;;;0.68;0.68;;;22.50;45.30;;;;;;5065194;28;20066;-62
2023/06/14 06:45:01;;;;;;;0.60;0.45;;;22.50;45.10;;;;;;5067933;28;20422;-62
2023/06/14 06:47:27;;;;;;;0.82;0.80;;;22.60;44.90;;;;;;5063340;28;20075;-62
2023/06/14 06:49:52;;;;;;;1.08;0.60;;;22.60;44.80;;;;;;5068054;28;20032;-62
2023/06/14 06:52:18;;;;;;;1.73;0.60;;;22.70;44.70;;;;;;5064714;28;20454;-62
2023/06/14 06:54:44;;;;;;;2.83;0.70;;;22.80;44.60;;;;;;5066960;28;20024;-62
2023/06/14 06:57:10;;;;;;;1.85;0.68;;;22.80;44.50;;;;;;5066876;28;20119;-62
2023/06/14 06:59:36;;;;;;;1.17;0.57;;;22.90;44.50;;;;;;5059524;28;20043;-62
2023/06/14 07:02:03;;;;;;;3.47;0.80;;;22.90;44.40;;;;;;5045253;28;20029;-65
2023/06/14 07:04:28;;;;;;;1.05;0.82;;;23.00;44.20;;;;;;5064524;28;20073;-65
2023/06/14 07:06:54;;;;;;;0.93;0.80;;;23.10;44.20;;;;;;5042334;28;20513;-62
2023/06/14 07:09:20;;;;;;;1.02;0.68;;;23.20;44.10;;;;;;5042054;28;20029;-64
2023/06/14 07:11:47;;;;;;;0.60;0.60;;;23.20;45.20;;;;;;5046112;28;20036;-64
2023/06/14 07:14:13;;;;;;;1.10;0.63;;;23.40;45.40;;;;;;5057340;28;20107;-64
2023/06/14 07:16:41;;;;;;;0.82;0.73;;;23.70;44.30;;;;;;5062507;28;20108;-64
2023/06/14 07:19:06;;;;;;;1.00;0.63;;;23.80;43.70;;;;;;5061097;28;20079;-64
2023/06/14 07:21:32;;;;;;;1.00;1.00;;;23.90;43.20;;;;;;5043732;28;20032;-64
2023/06/14 07:23:58;;;;;;;0.82;0.60;;;24.00;42.70;;;;;;5067709;28;20059;-64
2023/06/14 07:26:24;;;;;;;1.20;0.70;;;24.00;42.50;;;;;;5061342;28;20020;-64
2023/06/14 07:28:50;;;;;;;1.88;0.60;;;24.00;42.50;;;;;;5063611;28;20074;-64
2023/06/14 07:31:16;;;;;;;0.88;0.80;;;24.10;42.60;;;;;;5066093;28;20476;-64
2023/06/14 07:33:43;;;;;;;0.60;0.60;;;24.20;42.50;;;;;;5044431;28;20032;-64
2023/06/14 07:36:08;;;;;;;0.60;0.52;;;24.30;42.40;;;;;;5064839;28;20056;-64
2023/06/14 07:38:34;;;;;;;2.15;1.60;;;24.40;42.40;;;;;;5069180;28;20067;-63
2023/06/14 07:41:00;;;;;;;0.82;0.63;;;24.40;42.10;;;;;;5067399;28;20385;-64
2023/06/14 07:43:26;;;;;;;1.05;0.88;;;24.50;41.80;;;;;;5056452;28;20531;-63
2023/06/14 07:45:52;;;;;;;0.70;0.70;;;24.50;41.40;;;;;;5063157;28;20117;-63
2023/06/14 07:48:18;;;;;;;0.50;0.50;;;24.50;41.60;;;;;;5063992;28;20028;-63
2023/06/14 07:50:44;;;;;;;1.52;1.00;;;24.60;41.50;;;;;;5041963;28;20074;-63
2023/06/14 07:53:10;;;;;;;0.95;0.47;;;24.60;41.20;;;;;;5043307;28;20036;-62
2023/06/14 07:55:39;;;;;;;0.63;0.60;;;24.70;41.10;;;;;;5045825;28;20035;-63
2023/06/14 07:58:06;;;;;;;1.05;0.85;;;24.80;40.50;;;;;;5046370;28;20035;-63
2023/06/14 08:00:32;;;;;;;0.40;0.40;;;24.70;40.30;;;;;;5050630;28;20449;-63
2023/06/14 08:02:59;;;;;;;0.68;0.40;;;24.80;40.40;;;;;;5048124;28;20052;-63
2023/06/14 08:05:25;;;;;;;1.65;0.50;;;24.80;40.50;;;;;;5048492;28;20369;-62
2023/06/14 08:07:51;;;;;;;0.75;0.75;;;25.00;40.50;;;;;;5065086;28;20021;-62
2023/06/14 08:10:18;;;;;;;1.55;0.63;;;25.10;40.30;;;;;;5046860;28;20044;-62
2023/06/14 08:12:43;;;;;;;0.95;0.60;;;25.10;40.20;;;;;;5057513;28;20037;-62
2023/06/14 08:15:10;;;;;;;0.85;0.50;;;25.10;39.70;;;;;;5044912;28;20395;-62
2023/06/14 08:17:36;;;;;;;0.90;0.77;;;25.20;39.50;;;;;;5063564;28;20056;-63
2023/06/14 08:20:04;;;;;;;0.88;0.80;;;25.20;38.90;;;;;;5064495;28;20476;-63
2023/06/14 08:22:32;;;;;;;1.00;0.93;;;25.20;38.30;;;;;;5041670;28;20032;-63
2023/06/14 08:24:58;;;;;;;0.60;0.60;;;25.10;38.30;;;;;;5038622;28;20033;-62
2023/06/14 08:27:23;;;;;;;1.25;0.60;;;25.10;38.70;;;;;;5043883;28;20024;-63
2023/06/14 08:29:49;;;;;;;0.88;0.70;;;25.10;38.90;;;;;;5056658;28;20396;-62
2023/06/14 08:32:15;;;;;;;0.60;0.60;;;25.10;39.00;;;;;;5042798;28;20131;-65
2023/06/14 08:34:41;;;;;;;0.57;0.57;;;25.20;39.00;;;;;;5055741;28;20029;-65
2023/06/14 08:37:07;;;;;;;0.43;0.40;;;25.40;38.90;;;;;;5059267;28;20029;-63
2023/06/14 08:39:33;;;;;;;0.95;0.43;;;25.60;38.60;;;;;;5059222;28;20036;-63
2023/06/14 08:42:02;;;;;;;0.80;0.60;;;25.70;38.40;;;;;;5060018;28;20078;-62
2023/06/14 08:44:27;;;;;;;0.60;0.60;;;25.90;38.10;;;;;;5063092;28;20513;-62
2023/06/14 08:46:57;;;;;;;3.85;0.55;;;26.00;38.30;;;;;;5058157;28;20021;-62
2023/06/14 08:49:24;;;;;;;0.70;0.68;;;25.90;37.90;;;;;;5054737;28;20163;-63
2023/06/14 08:52:00;;;;;;;0.55;0.50;;;26.00;37.90;;;;;;5060735;28;20027;-65
2023/06/14 08:54:30;;;;;;;0.50;0.50;;;26.10;37.80;;;;;;5038107;28;20029;-62
2023/06/14 08:56:57;;;;;;;0.45;0.45;;;26.10;37.70;;;;;;5017998;28;20028;-65
2023/06/14 08:59:38;;;;;;;0.47;0.47;;;26.20;37.90;;;;;;5064791;28;20029;-66
2023/06/14 09:02:05;;;;;;;0.90;0.70;;;26.30;38.00;;;;;;5047579;28;20055;-63
2023/06/14 09:04:32;;;;;;;0.50;0.50;;;26.40;37.80;;;;;;5067604;28;20071;-65
2023/06/14 09:06:58;;;;;;;0.40;0.40;;;26.50;37.30;;;;;;5069024;28;20538;-65
2023/06/14 09:09:25;;;;;;;1.20;0.85;;;26.50;37.20;;;;;;5063173;28;20024;-65
2023/06/14 09:11:51;;;;;;;0.68;0.68;;;26.60;37.00;;;;;;5068617;28;20029;-66
2023/06/14 09:14:19;;;;;;;0.25;0.25;;;26.70;36.90;;;;;;5062711;28;20132;-65
2023/06/14 09:16:45;;;;;;;1.05;0.60;;;26.80;36.80;;;;;;5055948;28;20125;-63
2023/06/14 09:19:22;;;;;;;4.82;0.60;;;26.80;36.70;;;;;;5070619;28;20040;-63
2023/06/14 09:21:47;;;;;;;0.57;0.57;;;26.90;36.70;;;;;;5069087;28;20060;-63
2023/06/14 09:24:14;;;;;;;0.30;0.30;;;27.00;36.90;;;;;;5069631;28;20094;-63
2023/06/14 09:26:40;;;;;;;1.65;0.60;;;27.00;36.90;;;;;;5064340;28;20527;-63
2023/06/14 09:29:13;;;;;;;0.43;0.43;;;27.10;36.90;;;;;;5069747;28;20356;-65
2023/06/14 09:31:38;;;;;;;1.95;0.75;;;27.10;36.90;;;;;;5067561;28;20040;-66
2023/06/14 09:34:05;;;;;;;0.60;0.60;;;27.20;37.00;;;;;;5066785;28;20467;-66
2023/06/14 09:36:32;;;;;;;0.40;0.40;;;27.20;36.70;;;;;;5064860;28;20125;-66
2023/06/14 09:39:07;;;;;;;0.50;0.40;;;27.20;36.80;;;;;;5070773;28;20486;-66
2023/06/14 09:41:37;;;;;;;1.85;0.50;;;27.40;36.90;;;;;;5064925;28;20036;-66
2023/06/14 09:44:05;;;;;;;0.82;0.47;;;27.40;36.50;;;;;;5069392;28;20021;-66
2023/06/14 09:46:31;;;;;;;0.40;0.40;;;27.40;36.10;;;;;;5072969;28;20033;-65
2023/06/14 09:49:01;;;;;;;4.38;0.60;;;27.50;35.80;;;;;;5071331;28;20372;-62
2023/06/14 09:51:30;;;;;;;0.50;0.50;;;27.60;35.70;;;;;;5069094;28;20403;-63
2023/06/14 09:54:00;;;;;;;0.43;0.43;;;27.70;35.60;;;;;;5070412;28;20067;-66
2023/06/14 09:56:41;;;;;;;0.68;0.68;;;27.70;35.50;;;;;;5068915;28;20471;-66
2023/06/14 09:59:09;;;;;;;0.38;0.38;;;27.80;35.50;;;;;;5068010;28;20043;-66
2023/06/14 10:01:41;;;;;;;1.00;0.50;;;27.90;35.20;;;;;;5065201;28;20481;-63
2023/06/14 10:04:07;;;;;;;0.70;0.70;;;28.00;34.90;;;;;;5066984;28;20036;-63
2023/06/14 10:06:39;;;;;;;0.50;0.50;;;28.10;35.10;;;;;;5069433;28;20052;-66
2023/06/14 10:09:10;;;;;;;0.77;0.63;;;28.20;35.20;;;;;;5067512;28;20053;-64
2023/06/14 10:11:36;;;;;;;0.50;0.50;;;28.30;34.80;;;;;;5073814;28;20081;-62
2023/06/14 10:14:05;;;;;;;0.80;0.80;;;28.40;34.90;;;;;;5062689;28;20048;-66
2023/06/14 10:16:56;;;;;;;0.52;0.50;;;28.40;34.60;;;;;;5070024;28;20460;-63
2023/06/14 10:19:48;;;;;;;0.70;0.60;;;28.50;34.70;;;;;;5067918;28;20040;-66
2023/06/14 10:22:25;;;;;;;0.70;0.70;;;28.50;34.40;;;;;;5064210;28;20040;-63
2023/06/14 10:24:51;;;;;;;0.50;0.43;;;28.50;34.40;;;;;;5065699;28;20024;-65
2023/06/14 10:27:18;;;;;;;0.40;0.40;;;28.50;34.10;;;;;;5067476;28;20074;-66
2023/06/14 10:29:52;;;;;;;0.50;0.50;;;28.60;34.20;;;;;;5068890;28;20075;-66
2023/06/14 10:32:19;;;;;;;0.70;0.45;;;28.70;34.20;;;;;;5063133;28;20047;-66
2023/06/14 10:34:45;;;;;;;0.68;0.60;;;28.80;34.10;;;;;;5065735;28;20533;-66
2023/06/14 10:37:14;;;;;;;0.82;0.60;;;28.90;34.00;;;;;;5070301;28;20031;-66
2023/06/14 10:39:45;;;;;;;0.50;0.50;;;29.00;34.00;;;;;;5063959;28;20036;-66
2023/06/14 10:42:12;;;;;;;0.57;0.57;;;29.10;34.00;;;;;;5068023;28;20407;-66
2023/06/14 10:44:40;;;;;;;1.10;0.50;;;29.20;34.40;;;;;;5060630;28;20482;-63
2023/06/14 10:47:25;;;;;;;0.70;0.60;;;29.30;33.50;;;;;;5026553;28;20115;-62
2023/06/14 10:50:14;;;;;;;0.55;0.50;;;29.30;33.00;;;;;;5062844;28;20574;-63
2023/06/14 10:52:43;;;;;;;0.50;0.50;;;29.30;32.70;;;;;;5060548;28;20083;-65
2023/06/14 10:55:22;;;;;;;0.93;0.60;;;29.40;33.40;;;;;;5025396;28;20066;-65
2023/06/14 10:57:51;;;;;;;0.73;0.60;;;29.50;32.60;;;;;;5058235;28;20464;-65
2023/06/14 11:00:22;;;;;;;0.60;0.60;;;29.60;32.70;;;;;;5060300;28;20166;-65
2023/06/14 11:03:25;;;;;;;0.87;0.60;;;29.60;32.60;;;;;;5062757;28;20016;-65
2023/06/14 11:05:53;;;;;;;0.57;0.40;;;29.60;32.60;;;;;;5063864;28;20072;-65
2023/06/14 11:08:43;;;;;;;0.65;0.65;;;29.60;32.50;;;;;;5066722;28;20032;-65
2023/06/14 11:11:09;;;;;;;0.50;0.50;;;29.70;32.60;;;;;;5064675;28;20028;-65
2023/06/14 11:13:39;;;;;;;1.35;0.50;;;29.70;32.40;;;;;;5050077;28;20033;-65
2023/06/14 11:16:11;;;;;;;0.60;0.50;;;29.80;32.60;;;;;;5062766;28;20031;-66
2023/06/14 11:18:37;;;;;;;1.00;0.90;;;29.80;32.30;;;;;;5060872;28;20028;-65
2023/06/14 11:21:03;;;;;;;0.60;0.60;;;29.80;32.40;;;;;;5047806;28;20048;-66
2023/06/14 11:23:29;;;;;;;0.75;0.50;;;29.90;32.40;;;;;;5064904;28;20035;-65
2023/06/14 11:25:55;;;;;;;0.57;0.57;;;30.00;32.20;;;;;;5042101;28;20052;-63
2023/06/14 11:28:21;;;;;;;0.68;0.63;;;30.00;31.60;;;;;;5061609;28;20045;-63
2023/06/14 11:30:48;;;;;;;0.63;0.63;;;29.90;31.50;;;;;;5064651;28;20036;-65
2023/06/14 11:33:20;;;;;;;0.57;0.40;;;30.00;31.70;;;;;;5031436;28;20032;-66
2023/06/14 11:35:46;;;;;;;1.17;0.68;;;30.10;31.80;;;;;;5069592;28;20064;-66
2023/06/14 11:38:13;;;;;;;0.70;0.70;;;30.20;31.80;;;;;;5061411;28;20086;-65
2023/06/14 11:40:39;;;;;;;0.70;0.70;;;30.20;31.60;;;;;;5058936;28;20033;-65
2023/06/14 11:43:04;;;;;;;0.57;0.57;;;30.10;31.60;;;;;;5041164;28;20032;-65
2023/06/14 11:45:31;;;;;;;1.13;0.90;;;30.10;31.80;;;;;;5062100;28;20032;-66
2023/06/14 11:48:00;;;;;;;0.50;0.50;;;30.10;32.00;;;;;;5064174;28;20017;-65
2023/06/14 11:50:27;;;;;;;0.73;0.73;;;30.20;32.10;;;;;;5066464;28;20064;-66
2023/06/14 11:52:57;;;;;;;0.98;0.75;;;30.30;32.20;;;;;;5060974;28;20029;-65
2023/06/14 11:55:23;;;;;;;0.80;0.65;;;30.40;31.90;;;;;;5065350;28;20032;-66
2023/06/14 11:57:49;;;;;;;1.13;0.63;;;30.40;31.80;;;;;;5039726;28;20169;-65
2023/06/14 12:00:17;;;;;;;0.40;0.40;;;30.60;31.80;;;;;;5065032;28;20036;-65
2023/06/14 12:02:43;;;;;;;0.88;0.70;;;30.70;31.70;;;;;;5046983;28;20119;-63
2023/06/14 12:05:09;;;;;;;0.90;0.80;;;30.70;31.50;;;;;;5043281;28;20156;-62
2023/06/14 12:07:37;;;;;;;0.40;0.40;;;30.80;31.40;;;;;;5047760;28;20035;-63
2023/06/14 12:10:07;;;;;;;0.40;0.40;;;30.80;31.30;;;;;;5042911;28;20066;-62
2023/06/14 12:12:37;;;;;;;0.75;0.75;;;30.90;31.20;;;;;;5039805;28;20460;-63
2023/06/14 12:15:07;;;;;;;0.50;0.50;;;30.90;31.20;;;;;;5039101;28;20136;-63
2023/06/14 12:17:41;;;;;;;0.40;0.40;;;31.00;31.30;;;;;;5040464;28;20107;-63
2023/06/14 12:20:10;;;;;;;0.60;0.60;;;31.10;31.30;;;;;;5041231;28;20037;-63
2023/06/14 12:22:37;;;;;;;0.77;0.77;;;31.20;31.30;;;;;;5048556;28;20393;-62
2023/06/14 12:25:03;;;;;;;0.40;0.40;;;31.30;31.30;;;;;;5046341;28;20055;-62
2023/06/14 12:27:29;;;;;;;0.50;0.50;;;31.30;31.10;;;;;;5044573;28;20104;-63
2023/06/14 12:30:03;;;;;;;0.47;0.45;;;31.40;31.30;;;;;;5036741;28;20021;-63
2023/06/14 12:32:29;;;;;;;0.60;0.60;;;31.40;31.20;;;;;;5045456;28;20043;-63
2023/06/14 12:34:55;;;;;;;0.80;0.50;;;31.50;31.30;;;;;;5047398;28;20025;-63
2023/06/14 12:37:21;;;;;;;0.73;0.40;;;31.50;31.30;;;;;;5039526;28;20504;-63
2023/06/14 12:39:47;;;;;;;2.92;1.15;;;31.60;31.30;;;;;;5039642;28;20446;-63
2023/06/14 12:42:14;;;;;;;1.00;0.90;;;31.60;31.10;;;;;;5035272;28;20064;-63
2023/06/14 12:44:40;;;;;;;0.90;0.70;;;31.50;31.20;;;;;;5032558;28;20469;-63
2023/06/14 12:47:07;;;;;;;0.50;0.50;;;31.50;31.40;;;;;;5045963;28;20032;-63
2023/06/14 12:49:33;;;;;;;0.98;0.70;;;31.50;31.30;;;;;;5043979;28;20029;-63